createdAt,value
2017-10-25T00:00:08.356Z,100788
2017-10-25T00:01:09.013Z,100788
2017-10-25T00:02:08.554Z,100786
2017-10-25T00:03:09.008Z,100786
2017-10-25T00:04:08.619Z,100790
2017-10-25T00:05:08.546Z,100776
2017-10-25T00:06:09.096Z,100785
2017-10-25T00:07:09.116Z,100780
2017-10-25T00:08:08.724Z,100780
2017-10-25T00:09:08.749Z,100777
2017-10-25T00:10:08.828Z,100780
2017-10-25T00:11:09.275Z,100776
2017-10-25T00:12:08.890Z,100780
2017-10-25T00:13:09.405Z,100783
2017-10-25T00:14:09.524Z,100777
2017-10-25T00:15:09.572Z,100780
2017-10-25T00:16:08.998Z,100777
2017-10-25T00:17:09.547Z,100777
2017-10-25T00:18:09.579Z,100775
2017-10-25T00:19:09.747Z,100778
2017-10-25T00:20:09.809Z,100774
2017-10-25T00:21:09.689Z,100772
2017-10-25T00:22:09.773Z,100769
2017-10-25T00:23:09.826Z,100764
2017-10-25T00:24:09.316Z,100760
2017-10-25T00:25:10.035Z,100759
2017-10-25T00:26:09.538Z,100768
2017-10-25T00:27:10.046Z,100767
2017-10-25T00:28:10.241Z,100766
2017-10-25T00:29:09.724Z,100769
2017-10-25T00:30:10.250Z,100770
2017-10-25T00:31:10.146Z,100772
2017-10-25T00:32:10.304Z,100771
2017-10-25T00:33:09.756Z,100777
2017-10-25T00:34:10.307Z,100775
2017-10-25T00:35:09.750Z,100774
2017-10-25T00:36:10.425Z,100770
2017-10-25T00:37:09.949Z,100774
2017-10-25T00:38:10.057Z,100768
2017-10-25T00:39:10.096Z,100775
2017-10-25T00:40:10.077Z,100772
2017-10-25T00:41:10.747Z,100774
2017-10-25T00:42:10.247Z,100775
2017-10-25T00:43:10.239Z,100780
2017-10-25T00:44:10.406Z,100775
2017-10-25T00:45:10.289Z,100770
2017-10-25T00:46:10.472Z,100775
2017-10-25T00:47:11.000Z,100770
2017-10-25T00:48:10.481Z,100772
2017-10-25T00:49:10.650Z,100776
2017-10-25T00:50:10.730Z,100768
2017-10-25T00:51:11.300Z,100771
2017-10-25T00:52:11.253Z,100771
2017-10-25T00:53:10.862Z,100757
2017-10-25T00:54:10.782Z,100766
2017-10-25T00:55:11.516Z,100764
2017-10-25T00:56:11.481Z,100767
2017-10-25T00:57:11.045Z,100762
2017-10-25T00:58:11.019Z,100769
2017-10-25T00:59:11.641Z,100769
2017-10-25T01:00:11.558Z,100763
2017-10-25T01:01:11.700Z,100765
2017-10-25T01:02:11.802Z,100766
2017-10-25T01:03:11.309Z,100766
2017-10-25T01:04:11.861Z,100760
2017-10-25T01:05:11.336Z,100767
2017-10-25T01:06:11.434Z,100766
2017-10-25T01:07:11.999Z,100755
2017-10-25T01:08:11.458Z,100765
2017-10-25T01:09:11.925Z,100760
2017-10-25T01:10:12.111Z,100758
2017-10-25T01:11:11.426Z,100755
2017-10-25T01:12:11.443Z,100750
2017-10-25T01:13:12.075Z,100760
2017-10-25T01:14:11.584Z,100750
2017-10-25T01:15:12.118Z,100749
2017-10-25T01:16:11.684Z,100753
2017-10-25T01:17:11.724Z,100750
2017-10-25T01:18:11.726Z,100749
2017-10-25T01:19:12.354Z,100751
2017-10-25T01:20:12.440Z,100744
2017-10-25T01:21:12.083Z,100748
2017-10-25T01:22:12.185Z,100750
2017-10-25T01:23:12.652Z,100746
2017-10-25T01:24:12.807Z,100746
2017-10-25T01:25:12.755Z,100742
2017-10-25T01:26:12.782Z,100743
2017-10-25T01:27:12.938Z,100740
2017-10-25T01:28:12.392Z,100747
2017-10-25T01:29:12.463Z,100744
2017-10-25T01:30:12.667Z,100742
2017-10-25T01:31:12.781Z,100743
2017-10-25T01:32:13.289Z,100744
2017-10-25T01:33:13.313Z,100742
2017-10-25T01:34:13.253Z,100745
2017-10-25T01:35:13.308Z,100741
2017-10-25T01:36:13.417Z,100742
2017-10-25T01:37:13.444Z,100744
2017-10-25T01:38:13.596Z,100743
2017-10-25T01:39:13.570Z,100743
2017-10-25T01:40:13.069Z,100744
2017-10-25T01:41:13.249Z,100747
2017-10-25T01:42:13.257Z,100740
2017-10-25T01:43:13.347Z,100734
2017-10-25T01:44:13.869Z,100739
2017-10-25T01:45:14.076Z,100738
2017-10-25T01:46:13.528Z,100738
2017-10-25T01:47:14.070Z,100733
2017-10-25T01:48:13.588Z,100730
2017-10-25T01:49:14.226Z,100734
2017-10-25T01:50:13.777Z,100735
2017-10-25T01:51:13.780Z,100729
2017-10-25T01:52:13.682Z,100729
2017-10-25T01:53:13.825Z,100728
2017-10-25T01:54:14.408Z,100733
2017-10-25T01:55:13.917Z,100726
2017-10-25T01:56:14.501Z,100726
2017-10-25T01:57:14.430Z,100723
2017-10-25T01:58:13.938Z,100725
2017-10-25T01:59:14.647Z,100726
2017-10-25T02:00:14.717Z,100729
2017-10-25T02:01:14.804Z,100728
2017-10-25T02:02:14.802Z,100724
2017-10-25T02:03:14.209Z,100728
2017-10-25T02:04:14.295Z,100731
2017-10-25T02:05:14.832Z,100722
2017-10-25T02:06:14.987Z,100725
2017-10-25T02:07:15.026Z,100728
2017-10-25T02:08:14.492Z,100727
2017-10-25T02:09:15.028Z,100724
2017-10-25T02:10:15.155Z,100723
2017-10-25T02:11:15.125Z,100718
2017-10-25T02:12:15.119Z,100719
2017-10-25T02:13:14.776Z,100716
2017-10-25T02:14:14.732Z,100712
2017-10-25T02:15:15.386Z,100712
2017-10-25T02:16:15.403Z,100716
2017-10-25T02:17:15.444Z,100717
2017-10-25T02:18:15.466Z,100724
2017-10-25T02:19:15.350Z,100725
2017-10-25T02:20:14.845Z,100723
2017-10-25T02:21:14.930Z,100720
2017-10-25T02:22:15.013Z,100728
2017-10-25T02:23:15.094Z,100730
2017-10-25T02:24:15.693Z,100727
2017-10-25T02:25:15.751Z,100721
2017-10-25T02:26:15.770Z,100727
2017-10-25T02:27:15.943Z,100730
2017-10-25T02:28:15.413Z,100729
2017-10-25T02:29:15.464Z,100726
2017-10-25T02:30:15.444Z,100720
2017-10-25T02:31:15.551Z,100724
2017-10-25T02:32:16.064Z,100721
2017-10-25T02:33:16.141Z,100721
2017-10-25T02:34:15.621Z,100718
2017-10-25T02:35:16.310Z,100714
2017-10-25T02:36:15.810Z,100721
2017-10-25T02:37:16.324Z,100722
2017-10-25T02:38:16.364Z,100716
2017-10-25T02:39:16.526Z,100721
2017-10-25T02:40:16.565Z,100722
2017-10-25T02:41:15.978Z,100721
2017-10-25T02:42:16.012Z,100717
2017-10-25T02:43:16.537Z,100719
2017-10-25T02:44:16.166Z,100721
2017-10-25T02:45:16.785Z,100721
2017-10-25T02:46:16.683Z,100719
2017-10-25T02:47:16.831Z,100718
2017-10-25T02:48:16.327Z,100719
2017-10-25T02:49:16.435Z,100715
2017-10-25T02:50:16.384Z,100718
2017-10-25T02:51:16.955Z,100721
2017-10-25T02:52:17.006Z,100727
2017-10-25T02:53:16.990Z,100714
2017-10-25T02:54:16.604Z,100721
2017-10-25T02:55:16.635Z,100725
2017-10-25T02:56:17.225Z,100716
2017-10-25T02:57:17.373Z,100714
2017-10-25T02:58:16.797Z,100718
2017-10-25T02:59:17.448Z,100714
2017-10-25T03:00:17.475Z,100713
2017-10-25T03:01:17.018Z,100718
2017-10-25T03:02:17.550Z,100713
2017-10-25T03:03:16.967Z,100713
2017-10-25T03:04:17.066Z,100709
2017-10-25T03:05:16.999Z,100706
2017-10-25T03:06:17.610Z,100708
2017-10-25T03:07:17.232Z,100707
2017-10-25T03:08:17.235Z,100706
2017-10-25T03:09:17.890Z,100707
2017-10-25T03:10:18.041Z,100706
2017-10-25T03:11:17.465Z,100705
2017-10-25T03:12:17.562Z,100699
2017-10-25T03:13:17.537Z,100699
2017-10-25T03:14:17.569Z,100706
2017-10-25T03:15:17.718Z,100699
2017-10-25T03:16:17.721Z,100711
2017-10-25T03:17:18.369Z,100711
2017-10-25T03:18:18.424Z,100708
2017-10-25T03:19:18.435Z,100712
2017-10-25T03:20:17.861Z,100703
2017-10-25T03:21:17.920Z,100708
2017-10-25T03:22:17.925Z,100707
2017-10-25T03:23:18.663Z,100705
2017-10-25T03:24:18.614Z,100706
2017-10-25T03:25:18.750Z,100707
2017-10-25T03:26:18.871Z,100708
2017-10-25T03:27:18.341Z,100700
2017-10-25T03:28:18.388Z,100695
2017-10-25T03:29:18.415Z,100692
2017-10-25T03:30:18.893Z,100697
2017-10-25T03:31:18.441Z,100692
2017-10-25T03:32:18.982Z,100693
2017-10-25T03:33:18.620Z,100692
2017-10-25T03:34:18.640Z,100693
2017-10-25T03:35:18.736Z,100688
2017-10-25T03:36:18.691Z,100685
2017-10-25T03:37:18.878Z,100687
2017-10-25T03:38:19.426Z,100685
2017-10-25T03:39:19.409Z,100688
2017-10-25T03:41:19.111Z,100689
2017-10-25T03:42:19.660Z,100687
2017-10-25T03:43:19.220Z,100689
2017-10-25T03:44:19.112Z,100685
2017-10-25T03:45:19.721Z,100679
2017-10-25T03:46:19.362Z,100675
2017-10-25T03:47:19.313Z,100676
2017-10-25T03:48:20.031Z,100672
2017-10-25T03:49:20.047Z,100673
2017-10-25T03:50:19.517Z,100676
2017-10-25T03:51:19.609Z,100676
2017-10-25T03:52:19.687Z,100674
2017-10-25T03:53:19.588Z,100668
2017-10-25T03:54:20.146Z,100671
2017-10-25T03:55:20.223Z,100678
2017-10-25T03:56:20.243Z,100677
2017-10-25T03:57:19.842Z,100679
2017-10-25T03:58:19.935Z,100683
2017-10-25T03:59:19.917Z,100681
2017-10-25T04:00:20.608Z,100677
2017-10-25T04:01:20.007Z,100686
2017-10-25T04:02:20.627Z,100684
2017-10-25T04:03:20.698Z,100686
2017-10-25T04:04:20.250Z,100686
2017-10-25T04:05:20.332Z,100684
2017-10-25T04:06:21.048Z,100686
2017-10-25T04:07:20.950Z,100686
2017-10-25T04:08:21.109Z,100684
2017-10-25T04:09:21.043Z,100686
2017-10-25T04:10:20.625Z,100678
2017-10-25T04:11:21.101Z,100690
2017-10-25T04:12:21.187Z,100684
2017-10-25T04:13:20.761Z,100690
2017-10-25T04:14:20.782Z,100682
2017-10-25T04:15:20.728Z,100692
2017-10-25T04:16:20.796Z,100684
2017-10-25T04:17:21.458Z,100687
2017-10-25T04:18:20.941Z,100683
2017-10-25T04:19:21.568Z,100684
2017-10-25T04:20:20.984Z,100692
2017-10-25T04:21:21.134Z,100688
2017-10-25T04:22:21.194Z,100684
2017-10-25T04:23:21.762Z,100689
2017-10-25T04:24:21.724Z,100686
2017-10-25T04:25:21.238Z,100682
2017-10-25T04:26:21.268Z,100684
2017-10-25T04:27:21.351Z,100681
2017-10-25T04:28:21.908Z,100681
2017-10-25T04:29:21.575Z,100682
2017-10-25T04:30:22.034Z,100684
2017-10-25T04:31:21.589Z,100681
2017-10-25T04:32:21.679Z,100676
2017-10-25T04:33:22.121Z,100683
2017-10-25T04:34:22.188Z,100693
2017-10-25T04:35:22.336Z,100693
2017-10-25T04:36:21.752Z,100687
2017-10-25T04:37:22.390Z,100688
2017-10-25T04:38:22.437Z,100682
2017-10-25T04:39:22.573Z,100687
2017-10-25T04:40:22.525Z,100686
2017-10-25T04:41:22.594Z,100692
2017-10-25T04:42:22.204Z,100685
2017-10-25T04:43:22.258Z,100698
2017-10-25T04:44:22.374Z,100682
2017-10-25T04:45:22.919Z,100675
2017-10-25T04:46:23.117Z,100672
2017-10-25T04:47:22.562Z,100667
2017-10-25T04:48:23.150Z,100673
2017-10-25T04:49:23.226Z,100670
2017-10-25T04:50:23.311Z,100664
2017-10-25T04:51:23.429Z,100660
2017-10-25T04:52:23.477Z,100666
2017-10-25T04:53:23.388Z,100665
2017-10-25T04:54:23.481Z,100665
2017-10-25T04:55:23.112Z,100672
2017-10-25T04:56:23.588Z,100673
2017-10-25T04:57:23.619Z,100671
2017-10-25T04:58:23.767Z,100665
2017-10-25T04:59:23.723Z,100665
2017-10-25T05:00:23.336Z,100662
2017-10-25T05:01:23.334Z,100663
2017-10-25T05:02:23.364Z,100671
2017-10-25T05:03:23.563Z,100676
2017-10-25T05:04:23.542Z,100683
2017-10-25T05:05:23.452Z,100676
2017-10-25T05:06:23.581Z,100675
2017-10-25T05:07:24.301Z,100679
2017-10-25T05:08:24.292Z,100672
2017-10-25T05:09:24.431Z,100678
2017-10-25T05:10:23.640Z,100676
2017-10-25T05:11:24.214Z,100676
2017-10-25T05:12:23.854Z,100675
2017-10-25T05:13:23.914Z,100668
2017-10-25T05:14:23.990Z,100668
2017-10-25T05:15:24.576Z,100669
2017-10-25T05:16:24.596Z,100662
2017-10-25T05:17:24.123Z,100669
2017-10-25T05:18:24.205Z,100665
2017-10-25T05:19:24.121Z,100661
2017-10-25T05:20:25.549Z,100665
2017-10-25T05:21:24.298Z,100664
2017-10-25T05:22:24.405Z,100662
2017-10-25T05:23:24.885Z,100660
2017-10-25T05:24:24.973Z,100657
2017-10-25T05:25:24.483Z,100659
2017-10-25T05:26:24.619Z,100660
2017-10-25T05:27:25.101Z,100662
2017-10-25T05:28:24.610Z,100661
2017-10-25T05:29:24.750Z,100658
2017-10-25T05:30:24.848Z,100658
2017-10-25T05:31:25.408Z,100658
2017-10-25T05:32:25.401Z,100658
2017-10-25T05:33:25.041Z,100660
2017-10-25T05:34:25.659Z,100659
2017-10-25T05:35:25.700Z,100653
2017-10-25T05:36:25.758Z,100653
2017-10-25T05:37:25.263Z,100655
2017-10-25T05:38:25.851Z,100656
2017-10-25T05:39:25.368Z,100654
2017-10-25T05:40:25.841Z,100655
2017-10-25T05:41:25.327Z,100650
2017-10-25T05:42:25.987Z,100642
2017-10-25T05:43:26.058Z,100647
2017-10-25T05:44:26.108Z,100649
2017-10-25T05:45:26.160Z,100645
2017-10-25T05:46:25.692Z,100648
2017-10-25T05:47:26.171Z,100647
2017-10-25T05:48:26.225Z,100643
2017-10-25T05:49:26.354Z,100648
2017-10-25T05:50:25.845Z,100653
2017-10-25T05:51:26.437Z,100645
2017-10-25T05:52:25.985Z,100645
2017-10-25T05:53:26.463Z,100644
2017-10-25T05:54:26.520Z,100641
2017-10-25T05:55:26.581Z,100644
2017-10-25T05:56:26.696Z,100647
2017-10-25T05:57:26.778Z,100646
2017-10-25T05:58:26.240Z,100650
2017-10-25T05:59:26.273Z,100651
2017-10-25T06:00:26.880Z,100648
2017-10-25T06:01:26.303Z,100648
2017-10-25T06:02:26.311Z,100655
2017-10-25T06:03:26.378Z,100652
2017-10-25T06:04:26.982Z,100650
2017-10-25T06:05:26.708Z,100652
2017-10-25T06:06:27.127Z,100661
2017-10-25T06:07:26.744Z,100662
2017-10-25T06:08:26.774Z,100655
2017-10-25T06:09:26.836Z,100658
2017-10-25T06:10:27.384Z,100653
2017-10-25T06:11:27.380Z,100657
2017-10-25T06:12:27.406Z,100660
2017-10-25T06:13:27.494Z,100653
2017-10-25T06:14:26.852Z,100641
2017-10-25T06:15:27.533Z,100643
2017-10-25T06:16:27.032Z,100649
2017-10-25T06:17:27.074Z,100644
2017-10-25T06:18:27.737Z,100652
2017-10-25T06:19:27.192Z,100664
2017-10-25T06:20:27.209Z,100657
2017-10-25T06:21:27.715Z,100654
2017-10-25T06:22:27.793Z,100650
2017-10-25T06:23:27.875Z,100652
2017-10-25T06:24:28.006Z,100638
2017-10-25T06:25:27.953Z,100640
2017-10-25T06:26:27.510Z,100638
2017-10-25T06:27:27.650Z,100642
2017-10-25T06:28:28.295Z,100647
2017-10-25T06:29:27.846Z,100645
2017-10-25T06:30:28.327Z,100653
2017-10-25T06:31:28.511Z,100654
2017-10-25T06:32:27.913Z,100648
2017-10-25T06:33:28.136Z,100645
2017-10-25T06:34:28.178Z,100654
2017-10-25T06:35:28.149Z,100648
2017-10-25T06:36:28.850Z,100648
2017-10-25T06:37:28.842Z,100655
2017-10-25T06:38:28.783Z,100652
2017-10-25T06:39:28.346Z,100657
2017-10-25T06:40:28.954Z,100655
2017-10-25T06:41:28.555Z,100651
2017-10-25T06:42:28.727Z,100657
2017-10-25T06:43:30.419Z,100653
2017-10-25T06:44:29.772Z,100651
2017-10-25T06:45:29.063Z,100653
2017-10-25T06:46:30.827Z,100653
2017-10-25T06:47:30.328Z,100663
2017-10-25T06:48:30.350Z,100659
2017-10-25T06:49:30.116Z,100658
2017-10-25T06:50:30.720Z,100655
2017-10-25T06:51:30.176Z,100658
2017-10-25T06:52:30.578Z,100662
2017-10-25T06:53:30.183Z,100654
2017-10-25T06:54:29.159Z,100657
2017-10-25T06:55:31.518Z,100661
2017-10-25T06:56:29.432Z,100660
2017-10-25T06:57:30.729Z,100657
2017-10-25T06:58:31.153Z,100661
2017-10-25T06:59:30.859Z,100665
2017-10-25T07:00:30.269Z,100662
2017-10-25T07:01:31.002Z,100668
2017-10-25T07:02:31.348Z,100675
2017-10-25T07:03:30.427Z,100662
2017-10-25T07:04:30.671Z,100672
2017-10-25T07:05:29.771Z,100669
2017-10-25T07:06:30.251Z,100675
2017-10-25T07:07:30.282Z,100680
2017-10-25T07:08:30.315Z,100686
2017-10-25T07:09:29.952Z,100696
2017-10-25T07:10:31.305Z,100682
2017-10-25T07:11:30.587Z,100693
2017-10-25T07:12:30.053Z,100698
2017-10-25T07:13:30.725Z,100701
2017-10-25T07:14:30.164Z,100702
2017-10-25T07:15:30.253Z,100704
2017-10-25T07:16:30.376Z,100705
2017-10-25T07:19:21.806Z,100716
2017-10-25T07:20:21.725Z,100717
2017-10-25T07:21:21.755Z,100709
2017-10-25T07:22:21.275Z,100699
2017-10-25T07:23:21.243Z,100705
2017-10-25T07:24:21.981Z,100710
2017-10-25T07:25:21.509Z,100710
2017-10-25T07:26:21.620Z,100711
2017-10-25T07:27:22.064Z,100702
2017-10-25T07:28:21.794Z,100710
2017-10-25T07:29:22.179Z,100714
2017-10-25T07:30:21.772Z,100723
2017-10-25T07:31:22.239Z,100728
2017-10-25T07:32:21.794Z,100730
2017-10-25T07:33:22.507Z,100736
2017-10-25T07:34:22.477Z,100732
2017-10-25T07:35:22.021Z,100736
2017-10-25T07:36:22.655Z,100735
2017-10-25T07:37:22.650Z,100737
2017-10-25T07:38:22.167Z,100732
2017-10-25T07:39:22.812Z,100741
2017-10-25T07:40:22.313Z,100729
2017-10-25T07:41:22.421Z,100737
2017-10-25T07:42:22.424Z,100739
2017-10-25T07:43:22.478Z,100733
2017-10-25T07:44:22.434Z,100726
2017-10-25T07:45:22.564Z,100735
2017-10-25T07:46:22.453Z,100727
2017-10-25T07:47:23.182Z,100731
2017-10-25T07:48:22.724Z,100729
2017-10-25T07:49:22.648Z,100737
2017-10-25T07:50:24.429Z,100733
2017-10-25T07:51:23.637Z,100738
2017-10-25T07:52:23.254Z,100729
2017-10-25T07:53:24.269Z,100734
2017-10-25T07:54:22.935Z,100744
2017-10-25T07:55:22.994Z,100740
2017-10-25T07:56:23.546Z,100740
2017-10-25T07:57:22.988Z,100698
2017-10-25T07:58:23.692Z,100730
2017-10-25T07:59:23.667Z,100746
2017-10-25T08:00:23.895Z,100741
2017-10-25T08:01:23.367Z,100743
2017-10-25T08:02:23.976Z,100745
2017-10-25T08:03:24.046Z,100748
2017-10-25T08:04:23.550Z,100754
2017-10-25T08:05:23.554Z,100749
2017-10-25T08:06:23.615Z,100743
2017-10-25T08:07:23.720Z,100750
2017-10-25T08:08:23.710Z,100742
2017-10-25T08:09:24.318Z,100750
2017-10-25T08:10:24.399Z,100751
2017-10-25T08:11:24.408Z,100754
2017-10-25T08:12:24.445Z,100746
2017-10-25T08:13:23.959Z,100749
2017-10-25T08:14:24.733Z,100740
2017-10-25T08:15:24.042Z,100736
2017-10-25T08:16:24.668Z,100745
2017-10-25T08:17:24.796Z,100736
2017-10-25T08:18:25.026Z,100732
2017-10-25T08:19:26.046Z,100735
2017-10-25T08:20:24.145Z,100733
2017-10-25T08:21:24.740Z,100725
2017-10-25T08:22:24.396Z,100719
2017-10-25T08:23:24.281Z,100725
2017-10-25T08:24:24.361Z,100722
2017-10-25T08:25:24.805Z,100759
2017-10-25T08:26:24.899Z,100727
2017-10-25T08:27:24.938Z,100680
2017-10-25T08:28:25.101Z,100727
2017-10-25T08:29:25.121Z,100730
2017-10-25T08:30:24.693Z,100722
2017-10-25T08:31:24.653Z,100715
2017-10-25T08:32:25.365Z,100707
2017-10-25T08:33:25.104Z,100722
2017-10-25T08:34:25.471Z,100726
2017-10-25T08:35:24.875Z,100729
2017-10-25T08:36:26.149Z,100723
2017-10-25T08:37:25.567Z,100720
2017-10-25T08:38:25.802Z,100730
2017-10-25T08:39:25.574Z,100726
2017-10-25T08:40:25.703Z,100729
2017-10-25T08:41:25.253Z,100732
2017-10-25T08:42:25.900Z,100720
2017-10-25T08:43:25.999Z,100732
2017-10-25T08:44:25.377Z,100731
2017-10-25T08:45:25.350Z,100724
2017-10-25T08:46:25.441Z,100719
2017-10-25T08:47:25.403Z,100740
2017-10-25T08:48:26.094Z,100737
2017-10-25T08:49:25.494Z,100732
2017-10-25T08:50:26.239Z,100736
2017-10-25T08:51:26.467Z,100735
2017-10-25T08:52:26.257Z,100728
2017-10-25T08:53:25.872Z,100719
2017-10-25T08:54:27.269Z,100722
2017-10-25T08:55:26.395Z,100719
2017-10-25T08:56:26.058Z,100731
2017-10-25T08:57:26.640Z,100726
2017-10-25T08:58:26.638Z,100733
2017-10-25T08:59:26.029Z,100722
2017-10-25T09:00:26.197Z,100727
2017-10-25T09:01:26.191Z,100716
2017-10-25T09:02:26.289Z,100730
2017-10-25T09:03:26.865Z,100730
2017-10-25T09:04:29.826Z,100730
2017-10-25T09:05:26.295Z,100727
2017-10-25T09:06:27.019Z,100719
2017-10-25T09:07:26.997Z,100729
2017-10-25T09:08:26.553Z,100730
2017-10-25T09:10:27.104Z,100727
2017-10-25T09:11:27.335Z,100729
2017-10-25T09:12:26.871Z,100735
2017-10-25T09:13:27.318Z,100742
2017-10-25T09:14:27.399Z,100751
2017-10-25T09:15:26.987Z,100748
2017-10-25T09:16:27.467Z,100743
2017-10-25T09:17:27.651Z,100743
2017-10-25T09:18:27.635Z,100752
2017-10-25T09:19:27.107Z,100744
2017-10-25T09:20:27.744Z,100750
2017-10-25T09:21:27.736Z,100747
2017-10-25T09:22:27.860Z,100751
2017-10-25T09:23:27.960Z,100755
2017-10-25T09:24:28.117Z,100751
2017-10-25T09:25:28.119Z,100745
2017-10-25T09:26:28.109Z,100754
2017-10-25T09:27:27.639Z,100756
2017-10-25T09:28:27.642Z,100756
2017-10-25T09:29:28.438Z,100763
2017-10-25T09:30:28.182Z,100755
2017-10-25T09:31:28.368Z,100761
2017-10-25T09:32:28.282Z,100761
2017-10-25T09:33:28.466Z,100770
2017-10-25T09:34:28.619Z,100773
2017-10-25T09:35:28.005Z,100764
2017-10-25T09:36:28.049Z,100760
2017-10-25T09:37:28.074Z,100766
2017-10-25T09:38:28.652Z,100773
2017-10-25T09:39:28.860Z,100778
2017-10-25T09:40:28.772Z,100774
2017-10-25T09:41:28.329Z,100775
2017-10-25T09:42:28.874Z,100773
2017-10-25T09:43:28.366Z,100776
2017-10-25T09:44:29.165Z,100771
2017-10-25T09:45:29.027Z,100783
2017-10-25T09:46:29.206Z,100776
2017-10-25T09:47:29.212Z,100780
2017-10-25T09:48:29.158Z,100782
2017-10-25T09:49:29.301Z,100776
2017-10-25T09:50:29.562Z,100784
2017-10-25T09:51:28.756Z,100783
2017-10-25T09:52:29.402Z,100779
2017-10-25T09:53:29.493Z,100782
2017-10-25T09:54:28.990Z,100779
2017-10-25T09:55:29.583Z,100789
2017-10-25T09:56:29.578Z,100797
2017-10-25T09:57:29.116Z,100786
2017-10-25T09:58:29.729Z,100792
2017-10-25T09:59:29.763Z,100790
2017-10-25T10:00:29.815Z,100790
2017-10-25T10:01:29.228Z,100796
2017-10-25T10:02:29.273Z,100796
2017-10-25T10:03:29.346Z,100794
2017-10-25T10:04:30.007Z,100786
2017-10-25T10:05:29.532Z,100790
2017-10-25T10:06:29.971Z,100791
2017-10-25T10:07:30.104Z,100792
2017-10-25T10:08:30.172Z,100792
2017-10-25T10:09:30.095Z,100798
2017-10-25T10:10:29.757Z,100803
2017-10-25T10:11:30.295Z,100798
2017-10-25T10:12:29.795Z,100803
2017-10-25T10:13:29.679Z,100804
2017-10-25T10:14:30.347Z,100802
2017-10-25T10:15:30.451Z,100798
2017-10-25T10:16:30.473Z,100794
2017-10-25T10:17:30.124Z,100794
2017-10-25T10:18:30.028Z,100782
2017-10-25T10:19:30.730Z,100798
2017-10-25T10:20:30.259Z,100797
2017-10-25T10:21:30.981Z,100796
2017-10-25T10:22:30.554Z,100793
2017-10-25T10:23:30.989Z,100798
2017-10-25T10:24:31.073Z,100808
2017-10-25T10:25:30.977Z,100798
2017-10-25T10:26:31.122Z,100805
2017-10-25T10:27:31.263Z,100807
2017-10-25T10:28:30.615Z,100810
2017-10-25T10:29:31.253Z,100812
2017-10-25T10:30:30.782Z,100814
2017-10-25T10:31:31.734Z,100814
2017-10-25T10:32:31.055Z,100812
2017-10-25T10:33:31.493Z,100816
2017-10-25T10:34:31.062Z,100811
2017-10-25T10:35:31.114Z,100818
2017-10-25T10:37:16.527Z,100827
2017-10-25T10:38:17.102Z,100809
2017-10-25T10:39:16.542Z,100829
2017-10-25T10:40:17.580Z,100820
2017-10-25T10:41:17.366Z,100822
2017-10-25T10:42:16.815Z,100822
2017-10-25T10:43:17.732Z,100820
2017-10-25T10:44:16.819Z,100829
2017-10-25T10:45:17.261Z,100831
2017-10-25T10:46:17.367Z,100836
2017-10-25T10:47:17.095Z,100824
2017-10-25T10:48:17.557Z,100826
2017-10-25T10:49:16.997Z,100825
2017-10-25T10:50:17.657Z,100822
2017-10-25T10:51:17.588Z,100824
2017-10-25T10:52:17.314Z,100833
2017-10-25T10:53:17.828Z,100835
2017-10-25T10:54:17.786Z,100823
2017-10-25T10:55:17.246Z,100833
2017-10-25T10:56:17.337Z,100827
2017-10-25T10:57:17.344Z,100830
2017-10-25T10:58:17.346Z,100831
2017-10-25T10:59:17.466Z,100831
2017-10-25T11:00:17.569Z,100829
2017-10-25T11:01:18.142Z,100832
2017-10-25T11:02:18.105Z,100828
2017-10-25T11:03:18.188Z,100823
2017-10-25T11:04:17.672Z,100832
2017-10-25T11:05:17.751Z,100828
2017-10-25T11:06:17.875Z,100830
2017-10-25T11:07:17.681Z,100835
2017-10-25T11:08:18.238Z,100832
2017-10-25T11:09:18.944Z,100835
2017-10-25T11:10:17.811Z,100832
2017-10-25T11:11:17.919Z,100825
2017-10-25T11:12:18.605Z,100819
2017-10-25T11:13:18.177Z,100830
2017-10-25T11:14:18.727Z,100816
2017-10-25T11:15:18.400Z,100822
2017-10-25T11:16:18.361Z,100821
2017-10-25T11:17:18.362Z,100827
2017-10-25T11:18:18.940Z,100826
2017-10-25T11:19:18.980Z,100831
2017-10-25T11:20:19.099Z,100826
2017-10-25T11:21:19.006Z,100833
2017-10-25T11:22:18.957Z,100825
2017-10-25T11:23:19.271Z,100828
2017-10-25T11:24:19.154Z,100824
2017-10-25T11:25:18.604Z,100830
2017-10-25T11:26:19.200Z,100830
2017-10-25T11:27:19.209Z,100825
2017-10-25T11:28:19.369Z,100825
2017-10-25T11:29:19.360Z,100829
2017-10-25T11:30:18.900Z,100826
2017-10-25T11:31:19.408Z,100831
2017-10-25T11:32:19.393Z,100827
2017-10-25T11:33:19.500Z,100822
2017-10-25T11:34:19.488Z,100830
2017-10-25T11:35:19.099Z,100838
2017-10-25T11:36:19.815Z,100825
2017-10-25T11:37:19.384Z,100827
2017-10-25T11:38:19.777Z,100828
2017-10-25T11:39:19.451Z,100819
2017-10-25T11:40:19.984Z,100826
2017-10-25T11:41:20.115Z,100826
2017-10-25T11:42:19.564Z,100830
2017-10-25T11:43:20.139Z,100827
2017-10-25T11:44:20.184Z,100822
2017-10-25T11:45:19.647Z,100825
2017-10-25T11:46:20.400Z,100834
2017-10-25T11:47:19.906Z,100835
2017-10-25T11:48:19.822Z,100835
2017-10-25T11:49:20.035Z,100837
2017-10-25T11:50:20.497Z,100836
2017-10-25T11:51:20.707Z,100829
2017-10-25T11:52:20.728Z,100833
2017-10-25T11:53:20.581Z,100838
2017-10-25T11:54:20.758Z,100836
2017-10-25T11:55:20.257Z,100836
2017-10-25T11:56:20.782Z,100840
2017-10-25T11:57:20.966Z,100839
2017-10-25T11:58:20.864Z,100831
2017-10-25T11:59:20.946Z,100836
2017-10-25T12:00:20.987Z,100839
2017-10-25T12:01:20.529Z,100834
2017-10-25T12:02:21.232Z,100835
2017-10-25T12:03:20.696Z,100834
2017-10-25T12:04:21.250Z,100833
2017-10-25T12:05:21.280Z,100838
2017-10-25T12:06:20.824Z,100831
2017-10-25T12:07:20.949Z,100831
2017-10-25T12:08:21.570Z,100830
2017-10-25T12:09:21.633Z,100833
2017-10-25T12:10:21.510Z,100832
2017-10-25T12:11:21.083Z,100838
2017-10-25T12:12:21.212Z,100836
2017-10-25T12:13:21.159Z,100834
2017-10-25T12:14:21.323Z,100844
2017-10-25T12:15:21.382Z,100842
2017-10-25T12:16:21.538Z,100843
2017-10-25T12:17:21.493Z,100846
2017-10-25T12:18:21.591Z,100840
2017-10-25T12:19:22.115Z,100848
2017-10-25T12:20:21.594Z,100843
2017-10-25T12:21:22.086Z,100846
2017-10-25T12:22:21.597Z,100840
2017-10-25T12:23:21.752Z,100842
2017-10-25T12:24:22.231Z,100840
2017-10-25T12:25:22.280Z,100846
2017-10-25T12:26:22.037Z,100841
2017-10-25T12:27:22.461Z,100842
2017-10-25T12:28:22.422Z,100841
2017-10-25T12:29:22.021Z,100832
2017-10-25T12:30:22.652Z,100846
2017-10-25T12:31:22.024Z,100847
2017-10-25T12:32:22.119Z,100843
2017-10-25T12:33:22.234Z,100837